sensor_id;sensor_type;location;lat;lon;timestamp;temperature;humidity
19952;DHT22;10137;49.406;19.484;2023-10-19T00:00:49;1.90;99.90
19952;DHT22;10137;49.406;19.484;2023-10-19T00:03:17;1.80;99.90
19952;DHT22;10137;49.406;19.484;2023-10-19T00:05:47;1.80;99.90
19952;DHT22;10137;49.406;19.484;2023-10-19T00:08:14;1.80;99.90
19952;DHT22;10137;49.406;19.484;2023-10-19T00:10:45;1.70;99.90
19952;DHT22;10137;49.406;19.484;2023-10-19T00:13:17;1.70;99.90
19952;DHT22;10137;49.406;19.484;2023-10-19T00:15:46;1.70;99.90
19952;DHT22;10137;49.406;19.484;2023-10-19T00:18:17;1.70;99.90
19952;DHT22;10137;49.406;19.484;2023-10-19T00:20:53;1.60;99.90
19952;DHT22;10137;49.406;19.484;2023-10-19T00:23:26;1.60;99.90
19952;DHT22;10137;49.406;19.484;2023-10-19T00:25:59;1.60;99.90
19952;DHT22;10137;49.406;19.484;2023-10-19T00:28:32;1.60;99.90
19952;DHT22;10137;49.406;19.484;2023-10-19T00:31:01;1.70;99.90
19952;DHT22;10137;49.406;19.484;2023-10-19T00:33:32;1.70;99.90
19952;DHT22;10137;49.406;19.484;2023-10-19T00:36:02;1.70;99.90
19952;DHT22;10137;49.406;19.484;2023-10-19T00:38:34;1.70;99.90
19952;DHT22;10137;49.406;19.484;2023-10-19T00:41:16;1.70;99.90
19952;DHT22;10137;49.406;19.484;2023-10-19T00:43:48;1.80;99.90
19952;DHT22;10137;49.406;19.484;2023-10-19T00:46:24;1.80;99.90
19952;DHT22;10137;49.406;19.484;2023-10-19T00:49:00;1.80;99.90
19952;DHT22;10137;49.406;19.484;2023-10-19T00:51:36;1.80;99.90
19952;DHT22;10137;49.406;19.484;2023-10-19T00:54:19;1.90;99.90
19952;DHT22;10137;49.406;19.484;2023-10-19T00:56:53;1.90;99.90
19952;DHT22;10137;49.406;19.484;2023-10-19T00:59:30;1.90;99.90
19952;DHT22;10137;49.406;19.484;2023-10-19T01:02:02;1.80;99.90
19952;DHT22;10137;49.406;19.484;2023-10-19T01:04:42;1.80;99.90
19952;DHT22;10137;49.406;19.484;2023-10-19T01:07:14;1.90;99.90
19952;DHT22;10137;49.406;19.484;2023-10-19T01:09:49;1.90;99.90
19952;DHT22;10137;49.406;19.484;2023-10-19T01:12:20;1.90;99.90
19952;DHT22;10137;49.406;19.484;2023-10-19T01:15:07;1.90;99.90
19952;DHT22;10137;49.406;19.484;2023-10-19T01:17:41;1.90;99.90
19952;DHT22;10137;49.406;19.484;2023-10-19T01:20:13;1.90;99.90
19952;DHT22;10137;49.406;19.484;2023-10-19T01:22:50;1.90;99.90
19952;DHT22;10137;49.406;19.484;2023-10-19T01:25:20;1.90;99.90
19952;DHT22;10137;49.406;19.484;2023-10-19T01:28:06;1.90;99.90
19952;DHT22;10137;49.406;19.484;2023-10-19T01:30:36;2.00;99.90
19952;DHT22;10137;49.406;19.484;2023-10-19T01:33:04;2.00;99.90
19952;DHT22;10137;49.406;19.484;2023-10-19T01:35:39;2.00;99.90
19952;DHT22;10137;49.406;19.484;2023-10-19T01:38:22;2.00;99.90
19952;DHT22;10137;49.406;19.484;2023-10-19T01:40:50;2.00;99.90
19952;DHT22;10137;49.406;19.484;2023-10-19T01:43:18;2.00;99.90
19952;DHT22;10137;49.406;19.484;2023-10-19T01:45:48;2.10;99.90
19952;DHT22;10137;49.406;19.484;2023-10-19T01:48:15;2.10;99.90
19952;DHT22;10137;49.406;19.484;2023-10-19T01:50:43;2.20;99.90
19952;DHT22;10137;49.406;19.484;2023-10-19T01:53:10;2.20;99.90
19952;DHT22;10137;49.406;19.484;2023-10-19T01:55:44;2.20;99.90
19952;DHT22;10137;49.406;19.484;2023-10-19T01:58:14;2.30;99.90
19952;DHT22;10137;49.406;19.484;2023-10-19T02:00:41;2.30;99.90
19952;DHT22;10137;49.406;19.484;2023-10-19T02:03:10;2.30;99.90
19952;DHT22;10137;49.406;19.484;2023-10-19T02:05:38;2.40;99.90
19952;DHT22;10137;49.406;19.484;2023-10-19T02:08:09;2.40;99.90
19952;DHT22;10137;49.406;19.484;2023-10-19T02:10:37;2.40;99.90
19952;DHT22;10137;49.406;19.484;2023-10-19T02:13:10;2.40;99.90
19952;DHT22;10137;49.406;19.484;2023-10-19T02:15:41;2.40;99.90
19952;DHT22;10137;49.406;19.484;2023-10-19T02:18:10;2.30;99.90
19952;DHT22;10137;49.406;19.484;2023-10-19T02:20:37;2.30;99.90
19952;DHT22;10137;49.406;19.484;2023-10-19T02:23:08;2.30;99.90
19952;DHT22;10137;49.406;19.484;2023-10-19T02:25:36;2.20;99.90
19952;DHT22;10137;49.406;19.484;2023-10-19T02:28:04;2.20;99.90
19952;DHT22;10137;49.406;19.484;2023-10-19T02:30:34;2.20;99.90
19952;DHT22;10137;49.406;19.484;2023-10-19T02:33:00;2.20;99.90
19952;DHT22;10137;49.406;19.484;2023-10-19T02:35:30;2.20;99.90
19952;DHT22;10137;49.406;19.484;2023-10-19T02:37:57;2.20;99.90
19952;DHT22;10137;49.406;19.484;2023-10-19T02:40:24;2.20;99.90
19952;DHT22;10137;49.406;19.484;2023-10-19T02:42:55;2.20;99.90
19952;DHT22;10137;49.406;19.484;2023-10-19T02:45:24;2.20;99.90
19952;DHT22;10137;49.406;19.484;2023-10-19T02:47:53;2.20;99.90
19952;DHT22;10137;49.406;19.484;2023-10-19T02:50:23;2.20;99.90
19952;DHT22;10137;49.406;19.484;2023-10-19T02:52:52;2.20;99.90
19952;DHT22;10137;49.406;19.484;2023-10-19T02:55:20;2.20;99.90
19952;DHT22;10137;49.406;19.484;2023-10-19T02:57:51;2.30;99.90
19952;DHT22;10137;49.406;19.484;2023-10-19T03:00:18;2.30;99.90
19952;DHT22;10137;49.406;19.484;2023-10-19T03:02:47;2.30;99.90
19952;DHT22;10137;49.406;19.484;2023-10-19T03:05:16;2.30;99.90
19952;DHT22;10137;49.406;19.484;2023-10-19T03:07:44;2.40;99.90
19952;DHT22;10137;49.406;19.484;2023-10-19T03:10:12;2.40;99.90
19952;DHT22;10137;49.406;19.484;2023-10-19T03:12:52;2.40;99.90
19952;DHT22;10137;49.406;19.484;2023-10-19T03:15:20;2.40;99.90
19952;DHT22;10137;49.406;19.484;2023-10-19T03:17:48;2.30;99.90
19952;DHT22;10137;49.406;19.484;2023-10-19T03:20:17;2.40;99.90
19952;DHT22;10137;49.406;19.484;2023-10-19T03:22:50;2.40;99.90
19952;DHT22;10137;49.406;19.484;2023-10-19T03:25:18;2.40;99.90
19952;DHT22;10137;49.406;19.484;2023-10-19T03:28:03;2.40;99.90
19952;DHT22;10137;49.406;19.484;2023-10-19T03:30:35;2.40;99.90
19952;DHT22;10137;49.406;19.484;2023-10-19T03:33:07;2.40;99.90
19952;DHT22;10137;49.406;19.484;2023-10-19T03:35:37;2.40;99.90
19952;DHT22;10137;49.406;19.484;2023-10-19T03:38:08;2.40;99.90
19952;DHT22;10137;49.406;19.484;2023-10-19T03:40:40;2.40;99.90
19952;DHT22;10137;49.406;19.484;2023-10-19T03:43:13;2.40;99.90
19952;DHT22;10137;49.406;19.484;2023-10-19T03:45:44;2.40;99.90
19952;DHT22;10137;49.406;19.484;2023-10-19T03:48:19;2.40;99.90
19952;DHT22;10137;49.406;19.484;2023-10-19T03:50:55;2.40;99.90
19952;DHT22;10137;49.406;19.484;2023-10-19T03:53:24;2.40;99.90
19952;DHT22;10137;49.406;19.484;2023-10-19T03:55:52;2.40;99.90
19952;DHT22;10137;49.406;19.484;2023-10-19T03:58:24;2.30;99.90
19952;DHT22;10137;49.406;19.484;2023-10-19T04:00:56;2.30;99.90
19952;DHT22;10137;49.406;19.484;2023-10-19T04:03:32;2.30;99.90
19952;DHT22;10137;49.406;19.484;2023-10-19T04:06:03;2.30;99.90
19952;DHT22;10137;49.406;19.484;2023-10-19T04:08:32;2.20;99.90
19952;DHT22;10137;49.406;19.484;2023-10-19T04:11:04;2.10;99.90
19952;DHT22;10137;49.406;19.484;2023-10-19T04:13:49;2.10;99.90
19952;DHT22;10137;49.406;19.484;2023-10-19T04:16:20;2.10;99.90
19952;DHT22;10137;49.406;19.484;2023-10-19T04:18:51;2.10;99.90
19952;DHT22;10137;49.406;19.484;2023-10-19T04:21:22;2.00;99.90
19952;DHT22;10137;49.406;19.484;2023-10-19T04:23:50;2.00;99.90
19952;DHT22;10137;49.406;19.484;2023-10-19T04:26:20;2.10;99.90
19952;DHT22;10137;49.406;19.484;2023-10-19T04:28:53;2.00;99.90
19952;DHT22;10137;49.406;19.484;2023-10-19T04:31:21;2.00;99.90
19952;DHT22;10137;49.406;19.484;2023-10-19T04:33:50;2.00;99.90
19952;DHT22;10137;49.406;19.484;2023-10-19T04:36:26;2.00;99.90
19952;DHT22;10137;49.406;19.484;2023-10-19T04:38:54;2.00;99.90
19952;DHT22;10137;49.406;19.484;2023-10-19T04:41:26;2.00;99.90
19952;DHT22;10137;49.406;19.484;2023-10-19T04:43:56;2.00;99.90
19952;DHT22;10137;49.406;19.484;2023-10-19T04:46:27;2.00;99.90
19952;DHT22;10137;49.406;19.484;2023-10-19T04:48:54;2.00;99.90
19952;DHT22;10137;49.406;19.484;2023-10-19T04:51:23;2.00;99.90
19952;DHT22;10137;49.406;19.484;2023-10-19T04:53:51;2.00;99.90
19952;DHT22;10137;49.406;19.484;2023-10-19T04:56:19;2.00;99.90
19952;DHT22;10137;49.406;19.484;2023-10-19T04:58:47;2.10;99.90
19952;DHT22;10137;49.406;19.484;2023-10-19T05:01:16;2.10;99.90
19952;DHT22;10137;49.406;19.484;2023-10-19T05:03:44;2.10;99.90
19952;DHT22;10137;49.406;19.484;2023-10-19T05:06:12;2.00;99.90
19952;DHT22;10137;49.406;19.484;2023-10-19T05:08:42;1.90;99.90
19952;DHT22;10137;49.406;19.484;2023-10-19T05:11:10;2.00;99.90
19952;DHT22;10137;49.406;19.484;2023-10-19T05:13:38;1.90;99.90
19952;DHT22;10137;49.406;19.484;2023-10-19T05:16:06;2.00;99.90
19952;DHT22;10137;49.406;19.484;2023-10-19T05:18:35;2.00;99.90
19952;DHT22;10137;49.406;19.484;2023-10-19T05:21:03;2.00;99.90
19952;DHT22;10137;49.406;19.484;2023-10-19T05:23:32;2.10;99.90
19952;DHT22;10137;49.406;19.484;2023-10-19T05:26:04;2.10;99.90
19952;DHT22;10137;49.406;19.484;2023-10-19T05:28:33;2.10;99.90
19952;DHT22;10137;49.406;19.484;2023-10-19T05:31:01;2.10;99.90
19952;DHT22;10137;49.406;19.484;2023-10-19T05:33:31;2.10;99.90
19952;DHT22;10137;49.406;19.484;2023-10-19T05:36:03;2.20;99.90
19952;DHT22;10137;49.406;19.484;2023-10-19T05:38:32;2.20;99.90
19952;DHT22;10137;49.406;19.484;2023-10-19T05:41:04;2.30;99.90
19952;DHT22;10137;49.406;19.484;2023-10-19T05:43:33;2.30;99.90
19952;DHT22;10137;49.406;19.484;2023-10-19T05:46:01;2.30;99.90
19952;DHT22;10137;49.406;19.484;2023-10-19T05:48:29;2.40;99.90
19952;DHT22;10137;49.406;19.484;2023-10-19T05:50:56;2.40;99.90
19952;DHT22;10137;49.406;19.484;2023-10-19T05:53:24;2.40;99.90
19952;DHT22;10137;49.406;19.484;2023-10-19T05:55:52;2.50;99.90
19952;DHT22;10137;49.406;19.484;2023-10-19T05:58:21;2.60;99.90
19952;DHT22;10137;49.406;19.484;2023-10-19T06:00:49;2.70;99.90
19952;DHT22;10137;49.406;19.484;2023-10-19T06:03:18;2.80;99.90
19952;DHT22;10137;49.406;19.484;2023-10-19T06:05:47;2.80;99.90
19952;DHT22;10137;49.406;19.484;2023-10-19T06:08:15;2.80;99.90
19952;DHT22;10137;49.406;19.484;2023-10-19T06:10:43;2.80;99.90
19952;DHT22;10137;49.406;19.484;2023-10-19T06:13:18;2.90;99.90
19952;DHT22;10137;49.406;19.484;2023-10-19T06:15:48;2.90;99.90
19952;DHT22;10137;49.406;19.484;2023-10-19T06:18:16;3.00;99.90
19952;DHT22;10137;49.406;19.484;2023-10-19T06:20:45;3.00;99.90
19952;DHT22;10137;49.406;19.484;2023-10-19T06:23:13;3.10;99.90
19952;DHT22;10137;49.406;19.484;2023-10-19T06:25:42;3.10;99.90
19952;DHT22;10137;49.406;19.484;2023-10-19T06:28:10;3.20;99.90
19952;DHT22;10137;49.406;19.484;2023-10-19T06:30:39;3.30;99.90
19952;DHT22;10137;49.406;19.484;2023-10-19T06:33:08;3.30;99.90
19952;DHT22;10137;49.406;19.484;2023-10-19T06:35:37;3.40;99.90
19952;DHT22;10137;49.406;19.484;2023-10-19T06:38:07;3.50;99.90
19952;DHT22;10137;49.406;19.484;2023-10-19T06:40:35;3.50;99.90
19952;DHT22;10137;49.406;19.484;2023-10-19T06:43:03;3.60;99.90
19952;DHT22;10137;49.406;19.484;2023-10-19T06:45:31;3.70;99.90
19952;DHT22;10137;49.406;19.484;2023-10-19T06:47:59;3.70;99.90
19952;DHT22;10137;49.406;19.484;2023-10-19T06:50:28;3.80;99.90
19952;DHT22;10137;49.406;19.484;2023-10-19T06:52:56;3.90;99.90
19952;DHT22;10137;49.406;19.484;2023-10-19T06:55:23;4.00;99.90
19952;DHT22;10137;49.406;19.484;2023-10-19T06:57:50;4.20;99.90
19952;DHT22;10137;49.406;19.484;2023-10-19T07:00:21;4.40;99.90
19952;DHT22;10137;49.406;19.484;2023-10-19T07:02:55;4.50;99.90
19952;DHT22;10137;49.406;19.484;2023-10-19T07:05:23;4.70;99.90
19952;DHT22;10137;49.406;19.484;2023-10-19T07:07:53;5.00;99.90
19952;DHT22;10137;49.406;19.484;2023-10-19T07:10:23;5.30;99.90
19952;DHT22;10137;49.406;19.484;2023-10-19T07:12:53;5.60;99.90
19952;DHT22;10137;49.406;19.484;2023-10-19T07:15:22;5.90;99.90
19952;DHT22;10137;49.406;19.484;2023-10-19T07:17:52;6.40;99.90
19952;DHT22;10137;49.406;19.484;2023-10-19T07:20:22;6.70;99.90
19952;DHT22;10137;49.406;19.484;2023-10-19T07:22:56;6.80;99.90
19952;DHT22;10137;49.406;19.484;2023-10-19T07:25:26;6.80;99.90
19952;DHT22;10137;49.406;19.484;2023-10-19T07:27:55;6.70;99.90
19952;DHT22;10137;49.406;19.484;2023-10-19T07:30:28;6.60;99.90
19952;DHT22;10137;49.406;19.484;2023-10-19T07:32:57;6.60;99.90
19952;DHT22;10137;49.406;19.484;2023-10-19T07:35:26;7.00;99.90
19952;DHT22;10137;49.406;19.484;2023-10-19T07:37:56;7.20;99.90
19952;DHT22;10137;49.406;19.484;2023-10-19T07:40:23;7.10;99.90
19952;DHT22;10137;49.406;19.484;2023-10-19T07:42:52;7.10;99.90
19952;DHT22;10137;49.406;19.484;2023-10-19T07:45:21;7.10;99.90
19952;DHT22;10137;49.406;19.484;2023-10-19T07:47:50;7.20;99.90
19952;DHT22;10137;49.406;19.484;2023-10-19T07:50:19;7.20;99.90
19952;DHT22;10137;49.406;19.484;2023-10-19T07:52:51;7.00;99.90
19952;DHT22;10137;49.406;19.484;2023-10-19T07:55:22;7.10;99.90
19952;DHT22;10137;49.406;19.484;2023-10-19T07:57:50;7.00;99.90
19952;DHT22;10137;49.406;19.484;2023-10-19T08:00:19;6.90;99.90
19952;DHT22;10137;49.406;19.484;2023-10-19T08:02:48;6.80;99.90
19952;DHT22;10137;49.406;19.484;2023-10-19T08:05:17;6.70;99.90
19952;DHT22;10137;49.406;19.484;2023-10-19T08:07:46;6.60;99.90
19952;DHT22;10137;49.406;19.484;2023-10-19T08:10:16;6.50;99.90
19952;DHT22;10137;49.406;19.484;2023-10-19T08:12:48;6.50;99.90
19952;DHT22;10137;49.406;19.484;2023-10-19T08:15:17;6.50;99.90
19952;DHT22;10137;49.406;19.484;2023-10-19T08:17:47;6.60;99.90
19952;DHT22;10137;49.406;19.484;2023-10-19T08:20:16;6.60;99.90
19952;DHT22;10137;49.406;19.484;2023-10-19T08:22:50;6.60;99.90
19952;DHT22;10137;49.406;19.484;2023-10-19T08:25:18;6.80;99.90
19952;DHT22;10137;49.406;19.484;2023-10-19T08:27:49;7.00;99.90
19952;DHT22;10137;49.406;19.484;2023-10-19T08:30:19;7.20;99.90
19952;DHT22;10137;49.406;19.484;2023-10-19T08:32:48;7.20;99.90
19952;DHT22;10137;49.406;19.484;2023-10-19T08:35:18;7.30;99.90
19952;DHT22;10137;49.406;19.484;2023-10-19T08:37:47;7.50;99.90
19952;DHT22;10137;49.406;19.484;2023-10-19T08:40:14;7.70;99.90
19952;DHT22;10137;49.406;19.484;2023-10-19T08:42:42;8.00;99.90
19952;DHT22;10137;49.406;19.484;2023-10-19T08:45:14;8.20;99.90
19952;DHT22;10137;49.406;19.484;2023-10-19T08:47:47;8.20;99.90
19952;DHT22;10137;49.406;19.484;2023-10-19T08:50:16;8.20;99.90
19952;DHT22;10137;49.406;19.484;2023-10-19T08:52:52;8.10;99.90
19952;DHT22;10137;49.406;19.484;2023-10-19T08:55:20;8.20;99.90
19952;DHT22;10137;49.406;19.484;2023-10-19T08:57:48;8.20;99.90
19952;DHT22;10137;49.406;19.484;2023-10-19T09:00:18;8.20;99.90
19952;DHT22;10137;49.406;19.484;2023-10-19T09:02:45;8.30;99.90
19952;DHT22;10137;49.406;19.484;2023-10-19T09:05:12;8.30;99.90
19952;DHT22;10137;49.406;19.484;2023-10-19T09:07:46;8.40;99.90
19952;DHT22;10137;49.406;19.484;2023-10-19T09:10:20;8.40;99.90
19952;DHT22;10137;49.406;19.484;2023-10-19T09:12:59;8.40;99.90
19952;DHT22;10137;49.406;19.484;2023-10-19T09:15:29;8.50;99.90
19952;DHT22;10137;49.406;19.484;2023-10-19T09:17:58;8.60;99.90
19952;DHT22;10137;49.406;19.484;2023-10-19T09:20:25;8.60;99.90
19952;DHT22;10137;49.406;19.484;2023-10-19T09:22:54;8.70;99.90
19952;DHT22;10137;49.406;19.484;2023-10-19T09:25:23;8.80;99.90
19952;DHT22;10137;49.406;19.484;2023-10-19T09:27:51;8.90;99.90
19952;DHT22;10137;49.406;19.484;2023-10-19T09:30:22;9.00;99.90
19952;DHT22;10137;49.406;19.484;2023-10-19T09:32:58;9.10;99.90
19952;DHT22;10137;49.406;19.484;2023-10-19T09:35:27;9.30;99.90
19952;DHT22;10137;49.406;19.484;2023-10-19T09:37:58;9.50;99.90
19952;DHT22;10137;49.406;19.484;2023-10-19T09:40:29;9.70;99.90
19952;DHT22;10137;49.406;19.484;2023-10-19T09:42:58;9.80;99.90
19952;DHT22;10137;49.406;19.484;2023-10-19T09:45:31;10.00;99.90
19952;DHT22;10137;49.406;19.484;2023-10-19T09:48:08;10.10;99.90
19952;DHT22;10137;49.406;19.484;2023-10-19T09:50:45;10.20;99.90
19952;DHT22;10137;49.406;19.484;2023-10-19T09:53:18;10.30;99.90
19952;DHT22;10137;49.406;19.484;2023-10-19T09:55:46;10.40;99.90
19952;DHT22;10137;49.406;19.484;2023-10-19T09:58:19;10.40;99.90
19952;DHT22;10137;49.406;19.484;2023-10-19T10:00:49;10.40;99.90
19952;DHT22;10137;49.406;19.484;2023-10-19T10:03:49;10.40;99.90
19952;DHT22;10137;49.406;19.484;2023-10-19T10:06:27;10.50;99.90
19952;DHT22;10137;49.406;19.484;2023-10-19T10:08:56;10.50;99.90
19952;DHT22;10137;49.406;19.484;2023-10-19T10:11:25;10.50;99.90
19952;DHT22;10137;49.406;19.484;2023-10-19T10:13:55;10.50;99.90
19952;DHT22;10137;49.406;19.484;2023-10-19T10:16:25;10.50;99.90
19952;DHT22;10137;49.406;19.484;2023-10-19T10:18:58;10.50;99.90
19952;DHT22;10137;49.406;19.484;2023-10-19T10:21:28;10.60;99.90
19952;DHT22;10137;49.406;19.484;2023-10-19T10:24:04;10.50;99.90
19952;DHT22;10137;49.406;19.484;2023-10-19T10:26:31;10.60;99.90
19952;DHT22;10137;49.406;19.484;2023-10-19T10:29:22;10.60;99.90
19952;DHT22;10137;49.406;19.484;2023-10-19T10:31:50;10.70;99.90
19952;DHT22;10137;49.406;19.484;2023-10-19T10:34:47;10.70;99.90
19952;DHT22;10137;49.406;19.484;2023-10-19T10:37:17;10.80;99.90
19952;DHT22;10137;49.406;19.484;2023-10-19T10:39:45;10.90;99.90
19952;DHT22;10137;49.406;19.484;2023-10-19T10:42:16;11.00;99.90
19952;DHT22;10137;49.406;19.484;2023-10-19T10:44:47;11.10;99.90
19952;DHT22;10137;49.406;19.484;2023-10-19T10:47:19;11.20;99.90
19952;DHT22;10137;49.406;19.484;2023-10-19T10:49:50;11.30;99.90
19952;DHT22;10137;49.406;19.484;2023-10-19T10:52:27;11.40;99.90
19952;DHT22;10137;49.406;19.484;2023-10-19T10:54:55;11.40;99.90
19952;DHT22;10137;49.406;19.484;2023-10-19T10:57:22;11.40;99.90
19952;DHT22;10137;49.406;19.484;2023-10-19T11:00:01;11.40;99.90
19952;DHT22;10137;49.406;19.484;2023-10-19T11:02:29;11.40;99.90
19952;DHT22;10137;49.406;19.484;2023-10-19T11:04:57;11.40;99.90
19952;DHT22;10137;49.406;19.484;2023-10-19T11:07:25;11.50;99.90
19952;DHT22;10137;49.406;19.484;2023-10-19T11:09:52;11.50;99.90
19952;DHT22;10137;49.406;19.484;2023-10-19T11:12:20;11.50;99.90
19952;DHT22;10137;49.406;19.484;2023-10-19T11:14:53;11.50;99.90
19952;DHT22;10137;49.406;19.484;2023-10-19T11:17:21;11.60;99.90
19952;DHT22;10137;49.406;19.484;2023-10-19T11:19:54;11.70;99.90
19952;DHT22;10137;49.406;19.484;2023-10-19T11:22:24;11.70;99.90
19952;DHT22;10137;49.406;19.484;2023-10-19T11:24:52;11.70;99.90
19952;DHT22;10137;49.406;19.484;2023-10-19T11:27:24;11.70;99.90
19952;DHT22;10137;49.406;19.484;2023-10-19T11:29:56;11.80;99.90
19952;DHT22;10137;49.406;19.484;2023-10-19T11:32:26;11.80;99.90
19952;DHT22;10137;49.406;19.484;2023-10-19T11:35:04;11.80;99.90
19952;DHT22;10137;49.406;19.484;2023-10-19T11:37:46;11.80;99.90
19952;DHT22;10137;49.406;19.484;2023-10-19T11:40:14;11.80;99.90
19952;DHT22;10137;49.406;19.484;2023-10-19T11:42:41;11.80;99.90
19952;DHT22;10137;49.406;19.484;2023-10-19T11:45:08;11.80;99.90
19952;DHT22;10137;49.406;19.484;2023-10-19T11:47:37;11.90;99.90
19952;DHT22;10137;49.406;19.484;2023-10-19T11:50:05;11.90;99.90
19952;DHT22;10137;49.406;19.484;2023-10-19T11:52:32;11.90;99.90
19952;DHT22;10137;49.406;19.484;2023-10-19T11:55:00;11.90;99.90
19952;DHT22;10137;49.406;19.484;2023-10-19T11:57:28;11.90;99.90
19952;DHT22;10137;49.406;19.484;2023-10-19T11:59:55;12.00;99.90
19952;DHT22;10137;49.406;19.484;2023-10-19T12:02:22;12.00;99.90
19952;DHT22;10137;49.406;19.484;2023-10-19T12:04:50;12.00;99.90
19952;DHT22;10137;49.406;19.484;2023-10-19T12:07:17;12.00;99.90
19952;DHT22;10137;49.406;19.484;2023-10-19T12:09:44;12.10;99.90
19952;DHT22;10137;49.406;19.484;2023-10-19T12:12:13;12.10;99.90
19952;DHT22;10137;49.406;19.484;2023-10-19T12:14:41;12.10;99.90
19952;DHT22;10137;49.406;19.484;2023-10-19T12:17:08;12.10;99.90
19952;DHT22;10137;49.406;19.484;2023-10-19T12:19:35;12.10;99.90
19952;DHT22;10137;49.406;19.484;2023-10-19T12:22:02;12.20;99.90
19952;DHT22;10137;49.406;19.484;2023-10-19T12:24:29;12.20;99.90
19952;DHT22;10137;49.406;19.484;2023-10-19T12:26:56;12.20;99.90
19952;DHT22;10137;49.406;19.484;2023-10-19T12:29:25;12.20;99.90
19952;DHT22;10137;49.406;19.484;2023-10-19T12:31:53;12.20;99.90
19952;DHT22;10137;49.406;19.484;2023-10-19T12:34:21;12.20;99.90
19952;DHT22;10137;49.406;19.484;2023-10-19T12:36:49;12.20;99.90
19952;DHT22;10137;49.406;19.484;2023-10-19T12:39:24;12.20;99.90
19952;DHT22;10137;49.406;19.484;2023-10-19T12:42:10;12.20;99.90
19952;DHT22;10137;49.406;19.484;2023-10-19T12:44:44;12.20;99.90
19952;DHT22;10137;49.406;19.484;2023-10-19T12:47:16;12.20;99.90
19952;DHT22;10137;49.406;19.484;2023-10-19T12:49:43;12.20;99.90
19952;DHT22;10137;49.406;19.484;2023-10-19T12:52:17;12.20;99.90
19952;DHT22;10137;49.406;19.484;2023-10-19T12:54:44;12.20;99.90
19952;DHT22;10137;49.406;19.484;2023-10-19T12:57:18;12.20;99.90
19952;DHT22;10137;49.406;19.484;2023-10-19T12:59:50;12.20;99.90
19952;DHT22;10137;49.406;19.484;2023-10-19T13:02:17;12.20;99.90
19952;DHT22;10137;49.406;19.484;2023-10-19T13:04:47;12.20;99.90
19952;DHT22;10137;49.406;19.484;2023-10-19T13:07:14;12.20;99.90
19952;DHT22;10137;49.406;19.484;2023-10-19T13:09:41;12.10;99.90
19952;DHT22;10137;49.406;19.484;2023-10-19T13:12:09;12.10;99.90
19952;DHT22;10137;49.406;19.484;2023-10-19T13:14:38;12.10;99.90
19952;DHT22;10137;49.406;19.484;2023-10-19T13:17:07;12.10;99.90
19952;DHT22;10137;49.406;19.484;2023-10-19T13:19:35;12.10;99.90
19952;DHT22;10137;49.406;19.484;2023-10-19T13:22:02;12.10;99.90
19952;DHT22;10137;49.406;19.484;2023-10-19T13:24:33;12.00;99.90
19952;DHT22;10137;49.406;19.484;2023-10-19T13:27:06;12.00;99.90
19952;DHT22;10137;49.406;19.484;2023-10-19T13:29:34;12.00;99.90
19952;DHT22;10137;49.406;19.484;2023-10-19T13:32:04;12.00;99.90
19952;DHT22;10137;49.406;19.484;2023-10-19T13:34:33;11.90;99.90
19952;DHT22;10137;49.406;19.484;2023-10-19T13:37:01;11.90;99.90
19952;DHT22;10137;49.406;19.484;2023-10-19T13:39:28;11.90;99.90
19952;DHT22;10137;49.406;19.484;2023-10-19T13:41:57;11.90;99.90
19952;DHT22;10137;49.406;19.484;2023-10-19T13:44:24;11.90;99.90
19952;DHT22;10137;49.406;19.484;2023-10-19T13:46:52;11.90;99.90
19952;DHT22;10137;49.406;19.484;2023-10-19T13:49:20;11.90;99.90
19952;DHT22;10137;49.406;19.484;2023-10-19T13:51:50;11.90;99.90
19952;DHT22;10137;49.406;19.484;2023-10-19T13:54:18;11.80;99.90
19952;DHT22;10137;49.406;19.484;2023-10-19T13:56:45;11.80;99.90
19952;DHT22;10137;49.406;19.484;2023-10-19T13:59:12;11.90;99.90
19952;DHT22;10137;49.406;19.484;2023-10-19T14:01:41;11.80;99.90
19952;DHT22;10137;49.406;19.484;2023-10-19T14:04:08;11.80;99.90
19952;DHT22;10137;49.406;19.484;2023-10-19T14:06:39;11.80;99.90
19952;DHT22;10137;49.406;19.484;2023-10-19T14:09:09;11.70;99.90
19952;DHT22;10137;49.406;19.484;2023-10-19T14:11:38;11.70;99.90
19952;DHT22;10137;49.406;19.484;2023-10-19T14:14:05;11.70;99.90
19952;DHT22;10137;49.406;19.484;2023-10-19T14:16:32;11.70;99.90
19952;DHT22;10137;49.406;19.484;2023-10-19T14:18:59;11.70;99.90
19952;DHT22;10137;49.406;19.484;2023-10-19T14:21:28;11.70;99.90
19952;DHT22;10137;49.406;19.484;2023-10-19T14:23:55;11.70;99.90
19952;DHT22;10137;49.406;19.484;2023-10-19T14:26:24;11.70;99.90
19952;DHT22;10137;49.406;19.484;2023-10-19T14:28:51;11.70;99.90
19952;DHT22;10137;49.406;19.484;2023-10-19T14:31:20;11.70;99.90
19952;DHT22;10137;49.406;19.484;2023-10-19T14:33:47;11.70;99.90
19952;DHT22;10137;49.406;19.484;2023-10-19T14:36:15;11.70;99.90
19952;DHT22;10137;49.406;19.484;2023-10-19T14:38:43;11.70;99.90
19952;DHT22;10137;49.406;19.484;2023-10-19T14:41:12;11.70;99.90
19952;DHT22;10137;49.406;19.484;2023-10-19T14:43:40;11.80;99.90
19952;DHT22;10137;49.406;19.484;2023-10-19T14:46:07;11.70;99.90
19952;DHT22;10137;49.406;19.484;2023-10-19T14:48:35;11.70;99.90
19952;DHT22;10137;49.406;19.484;2023-10-19T14:51:02;11.70;99.90
19952;DHT22;10137;49.406;19.484;2023-10-19T14:53:31;11.70;99.90
19952;DHT22;10137;49.406;19.484;2023-10-19T14:55:58;11.70;99.90
19952;DHT22;10137;49.406;19.484;2023-10-19T14:58:25;11.70;99.90
19952;DHT22;10137;49.406;19.484;2023-10-19T15:00:53;11.70;99.90
19952;DHT22;10137;49.406;19.484;2023-10-19T15:03:24;11.60;99.90
19952;DHT22;10137;49.406;19.484;2023-10-19T15:05:52;11.60;99.90
19952;DHT22;10137;49.406;19.484;2023-10-19T15:08:21;11.60;99.90
19952;DHT22;10137;49.406;19.484;2023-10-19T15:10:52;11.60;99.90
19952;DHT22;10137;49.406;19.484;2023-10-19T15:13:22;11.60;99.90
19952;DHT22;10137;49.406;19.484;2023-10-19T15:15:50;11.60;99.90
19952;DHT22;10137;49.406;19.484;2023-10-19T15:18:20;11.60;99.90
19952;DHT22;10137;49.406;19.484;2023-10-19T15:20:51;11.60;99.90
19952;DHT22;10137;49.406;19.484;2023-10-19T15:23:19;11.60;99.90
19952;DHT22;10137;49.406;19.484;2023-10-19T15:25:53;11.70;99.90
19952;DHT22;10137;49.406;19.484;2023-10-19T15:28:21;11.70;99.90
19952;DHT22;10137;49.406;19.484;2023-10-19T15:30:51;11.70;99.90
19952;DHT22;10137;49.406;19.484;2023-10-19T15:33:28;11.60;99.90
19952;DHT22;10137;49.406;19.484;2023-10-19T15:35:58;11.60;99.90
19952;DHT22;10137;49.406;19.484;2023-10-19T15:38:26;11.60;99.90
19952;DHT22;10137;49.406;19.484;2023-10-19T15:40:57;11.50;99.90
19952;DHT22;10137;49.406;19.484;2023-10-19T15:43:25;11.50;99.90